createdAt,value
2019-04-04T00:00:52.019Z,94632.88
2019-04-04T00:03:21.065Z,94600.69
2019-04-04T00:05:50.556Z,94620.28
2019-04-04T00:08:19.061Z,94610.90
2019-04-04T00:10:47.559Z,94593.80
2019-04-04T00:13:16.046Z,94582.98
2019-04-04T00:15:45.610Z,94579.66
2019-04-04T00:18:14.528Z,94578.86
2019-04-04T00:20:43.005Z,94579.50
2019-04-04T00:23:11.523Z,94576.39
2019-04-04T00:25:40.502Z,94577.42
2019-04-04T00:28:09.362Z,94567.83
2019-04-04T00:30:37.945Z,94548.22
2019-04-04T00:33:06.504Z,94540.75
2019-04-04T00:35:34.986Z,94533.88
2019-04-04T00:38:06.785Z,94525.83
2019-04-04T00:40:33.709Z,94515.05
2019-04-04T00:43:02.212Z,94508.48
2019-04-04T00:45:31.962Z,94511.05
2019-04-04T00:48:01.125Z,94504.48
2019-04-04T00:50:30.736Z,94508.52
2019-04-04T00:52:59.221Z,94511.36
2019-04-04T00:55:27.722Z,94507.20
2019-04-04T00:57:56.197Z,94506.32
2019-04-04T01:00:24.707Z,94489.66
2019-04-04T01:02:53.265Z,94493.22
2019-04-04T01:05:21.747Z,94503.65
2019-04-04T01:07:50.256Z,94488.27
2019-04-04T01:10:19.508Z,94477.27
2019-04-04T01:12:48.202Z,94469.08
2019-04-04T01:15:16.749Z,94458.47
2019-04-04T01:17:45.238Z,94458.98
2019-04-04T01:20:14.286Z,94449.76
2019-04-04T01:22:42.778Z,94450.28
2019-04-04T01:25:11.421Z,94443.84
2019-04-04T01:27:39.998Z,94438.02
2019-04-04T01:30:11.768Z,94429.00
2019-04-04T01:32:39.541Z,94420.45
2019-04-04T01:35:08.273Z,94411.27
2019-04-04T01:37:36.781Z,94422.94
2019-04-04T01:40:05.895Z,94404.91
2019-04-04T01:42:37.808Z,94405.08
2019-04-04T01:45:06.799Z,94401.23
2019-04-04T01:47:35.311Z,94393.84
2019-04-04T01:50:04.071Z,94408.03
2019-04-04T01:52:32.520Z,94396.63
2019-04-04T01:55:03.290Z,94389.70
2019-04-04T01:57:31.259Z,94389.05
2019-04-04T01:59:59.743Z,94383.95
2019-04-04T02:02:28.336Z,94379.05
2019-04-04T02:04:56.829Z,94364.85
2019-04-04T02:07:25.331Z,94369.14
2019-04-04T02:09:53.843Z,94365.31
2019-04-04T02:12:22.325Z,94356.14
2019-04-04T02:14:50.862Z,94343.07
2019-04-04T02:17:20.081Z,94344.48
2019-04-04T02:19:49.597Z,94348.34
2019-04-04T02:22:18.095Z,94344.79
2019-04-04T02:24:46.592Z,94335.91
2019-04-04T02:27:15.097Z,94330.88
2019-04-04T02:29:43.585Z,94325.94
2019-04-04T02:32:13.741Z,94312.56
2019-04-04T02:34:42.326Z,94316.92
2019-04-04T02:37:10.874Z,94304.78
2019-04-04T02:39:39.423Z,94313.73
2019-04-04T02:42:08.001Z,94311.06
2019-04-04T02:44:36.657Z,94309.50
2019-04-04T02:47:05.328Z,94307.23
2019-04-04T02:49:33.818Z,94300.82
2019-04-04T02:52:02.377Z,94298.68
2019-04-04T02:54:30.867Z,94294.94
2019-04-04T02:56:59.382Z,94297.90
2019-04-04T02:59:27.876Z,94280.81
2019-04-04T03:01:56.439Z,94277.68
2019-04-04T03:04:25.026Z,94281.08
2019-04-04T03:06:57.184Z,94276.16
2019-04-04T03:09:23.944Z,94267.38
2019-04-04T03:11:54.044Z,94257.73
2019-04-04T03:14:22.693Z,94258.76
2019-04-04T03:16:51.174Z,94256.54
2019-04-04T03:19:19.692Z,94255.13
2019-04-04T03:21:48.165Z,94260.45
2019-04-04T03:24:16.634Z,94250.58
2019-04-04T03:26:45.152Z,94247.75
2019-04-04T03:29:13.656Z,94252.97
2019-04-04T03:31:42.352Z,94250.41
2019-04-04T03:34:12.566Z,94234.45
2019-04-04T03:36:41.228Z,94240.06
2019-04-04T03:39:09.752Z,94239.85
2019-04-04T03:41:38.235Z,94243.84
2019-04-04T03:44:06.743Z,94231.80
2019-04-04T03:46:38.718Z,94244.38
2019-04-04T03:49:05.447Z,94235.75
2019-04-04T03:51:36.948Z,94234.47
2019-04-04T03:54:05.912Z,94251.69
2019-04-04T03:56:39.169Z,94251.61
2019-04-04T03:59:05.044Z,94238.62
2019-04-04T04:01:33.631Z,94232.70
2019-04-04T04:04:02.137Z,94233.08
2019-04-04T04:06:30.633Z,94213.92
2019-04-04T04:08:59.162Z,94209.59
2019-04-04T04:11:27.962Z,94230.05
2019-04-04T04:13:56.463Z,94234.98
2019-04-04T04:16:24.971Z,94213.50
2019-04-04T04:18:54.413Z,94212.59
2019-04-04T04:21:23.839Z,94211.64
2019-04-04T04:23:56.197Z,94204.35
2019-04-04T04:26:22.544Z,94218.88
2019-04-04T04:28:53.177Z,94214.59
2019-04-04T04:31:21.293Z,94215.13
2019-04-04T04:33:49.926Z,94226.50
2019-04-04T04:36:18.765Z,94235.45
2019-04-04T04:38:47.298Z,94238.98
2019-04-04T04:41:19.767Z,94240.76
2019-04-04T04:43:46.035Z,94239.94
2019-04-04T04:46:17.137Z,94243.98
2019-04-04T04:48:44.747Z,94243.98
2019-04-04T04:51:13.255Z,94239.17
2019-04-04T04:53:41.733Z,94253.06
2019-04-04T04:56:10.242Z,94262.37
2019-04-04T04:58:41.719Z,94267.98
2019-04-04T05:01:08.954Z,94266.38
2019-04-04T05:03:37.445Z,94279.06
2019-04-04T05:06:06.091Z,94292.00
2019-04-04T05:08:34.627Z,94293.93
2019-04-04T05:11:03.518Z,94292.60
2019-04-04T05:13:32.134Z,94297.32
2019-04-04T05:16:02.076Z,94302.20
2019-04-04T05:18:30.834Z,94307.44
2019-04-04T05:21:01.404Z,94317.91
2019-04-04T05:23:29.522Z,94318.50
2019-04-04T05:25:58.050Z,94316.73
2019-04-04T05:28:26.525Z,94324.77
2019-04-04T05:30:55.004Z,94333.72
2019-04-04T05:33:27.011Z,94335.27
2019-04-04T05:35:53.731Z,94342.22
2019-04-04T05:38:22.214Z,94346.28
2019-04-04T05:40:50.685Z,94341.32
2019-04-04T05:43:19.207Z,94347.75
2019-04-04T05:45:47.682Z,94342.13
2019-04-04T05:48:16.175Z,94338.14
2019-04-04T05:50:44.689Z,94349.16
2019-04-04T05:53:13.583Z,94357.48
2019-04-04T05:55:42.482Z,94351.44
2019-04-04T05:58:11.187Z,94358.69
2019-04-04T06:00:41.329Z,94361.48
2019-04-04T06:03:10.280Z,94368.51
2019-04-04T06:05:38.747Z,94367.09
2019-04-04T06:08:08.167Z,94388.97
2019-04-04T06:10:37.383Z,94388.53
2019-04-04T06:13:05.867Z,94390.46
2019-04-04T06:15:34.354Z,94401.09
2019-04-04T06:18:02.979Z,94401.96
2019-04-04T06:20:31.457Z,94399.24
2019-04-04T06:22:59.954Z,94395.77
2019-04-04T06:25:34.351Z,94390.45
2019-04-04T06:27:58.741Z,94384.83
2019-04-04T06:30:27.293Z,94377.15
2019-04-04T06:32:55.807Z,94376.25
2019-04-04T06:35:24.304Z,94382.54
2019-04-04T06:37:52.801Z,94388.80
2019-04-04T06:40:21.303Z,94387.17
2019-04-04T06:42:49.996Z,94389.40
2019-04-04T06:45:18.472Z,94384.95
2019-04-04T06:47:47.150Z,94375.73
2019-04-04T06:50:15.888Z,94374.19
2019-04-04T06:52:44.402Z,94369.00
2019-04-04T06:55:13.087Z,94379.20
2019-04-04T06:57:41.593Z,94374.80
2019-04-04T07:00:10.919Z,94376.05
2019-04-04T07:02:39.417Z,94383.86
2019-04-04T07:05:10.569Z,94383.33
2019-04-04T07:07:39.135Z,94387.78
2019-04-04T07:10:08.380Z,94383.78
2019-04-04T07:12:38.699Z,94394.54
2019-04-04T07:15:12.525Z,94402.97
2019-04-04T07:17:40.481Z,94390.41
2019-04-04T07:20:10.302Z,94386.56
2019-04-04T07:22:38.798Z,94387.33
2019-04-04T07:25:07.513Z,94373.28
2019-04-04T07:27:36.036Z,94366.42
2019-04-04T07:30:08.390Z,94362.52
2019-04-04T07:32:36.889Z,94340.97
2019-04-04T07:35:07.335Z,94335.19
2019-04-04T07:37:35.821Z,94319.70
2019-04-04T07:40:06.431Z,94302.93
2019-04-04T07:42:34.960Z,94302.67
2019-04-04T07:45:05.522Z,94308.73
2019-04-04T07:47:34.045Z,94295.56
2019-04-04T07:50:02.609Z,94287.44
2019-04-04T07:52:33.112Z,94294.45
2019-04-04T07:55:02.959Z,94291.72
2019-04-04T07:57:31.616Z,94294.16
2019-04-04T08:00:00.111Z,94315.52
2019-04-04T08:02:28.662Z,94319.89
2019-04-04T08:04:57.185Z,94328.19
2019-04-04T08:07:26.036Z,94334.03
2019-04-04T08:09:54.529Z,94335.36
2019-04-04T08:12:23.063Z,94340.51
2019-04-04T08:14:51.556Z,94350.28
2019-04-04T08:17:20.066Z,94353.15
2019-04-04T08:19:59.255Z,94359.20
2019-04-04T08:22:18.945Z,94366.66
2019-04-04T08:24:47.521Z,94374.42
2019-04-04T08:27:16.967Z,94375.37
2019-04-04T08:29:45.529Z,94384.33
2019-04-04T08:32:14.037Z,94380.77
2019-04-04T08:34:42.500Z,94384.16
2019-04-04T08:37:11.051Z,94388.16
2019-04-04T08:39:39.558Z,94405.00
2019-04-04T08:42:08.031Z,94402.70
2019-04-04T08:44:36.531Z,94400.94
2019-04-04T08:47:05.187Z,94398.58
2019-04-04T08:49:34.084Z,94392.13
2019-04-04T08:52:02.533Z,94411.27
2019-04-04T08:54:31.006Z,94410.84
2019-04-04T08:56:59.495Z,94418.66
2019-04-04T08:59:28.052Z,94419.84
2019-04-04T09:01:56.600Z,94416.72
2019-04-04T09:04:25.109Z,94413.20
2019-04-04T09:06:53.674Z,94410.83
2019-04-04T09:09:22.175Z,94421.31
2019-04-04T09:11:50.967Z,94420.37
2019-04-04T09:14:19.470Z,94432.86
2019-04-04T09:16:47.959Z,94435.65
2019-04-04T09:19:16.449Z,94440.11
2019-04-04T09:21:45.011Z,94427.97
2019-04-04T09:24:13.496Z,94439.13
2019-04-04T09:26:41.978Z,94440.53
2019-04-04T09:29:10.482Z,94442.14
2019-04-04T09:31:38.972Z,94427.96
2019-04-04T09:34:07.533Z,94426.41
2019-04-04T09:36:36.040Z,94446.75
2019-04-04T09:39:06.731Z,94433.07
2019-04-04T09:41:35.293Z,94441.27
2019-04-04T09:44:05.998Z,94451.61
2019-04-04T09:46:33.998Z,94432.69
2019-04-04T09:49:02.484Z,94446.59
2019-04-04T09:51:30.977Z,94453.53
2019-04-04T09:53:59.475Z,94442.81
2019-04-04T09:56:28.629Z,94452.20
2019-04-04T09:58:57.277Z,94463.05
2019-04-04T10:01:25.768Z,94472.61
2019-04-04T10:03:54.260Z,94482.36
2019-04-04T10:06:22.770Z,94489.87
2019-04-04T10:08:51.240Z,94491.51
2019-04-04T10:11:20.090Z,94497.86
2019-04-04T10:13:48.626Z,94510.89
2019-04-04T10:16:17.176Z,94516.94
2019-04-04T10:18:45.667Z,94527.80
2019-04-04T10:21:14.229Z,94523.59
2019-04-04T10:23:42.709Z,94512.64
2019-04-04T10:26:11.302Z,94529.51
2019-04-04T10:28:39.788Z,94557.65
2019-04-04T10:31:08.351Z,94577.81
2019-04-04T10:33:36.835Z,94589.48
2019-04-04T10:36:05.459Z,94587.30
2019-04-04T10:38:33.963Z,94574.37
2019-04-04T10:41:02.452Z,94579.59
2019-04-04T10:43:30.944Z,94592.55
2019-04-04T10:45:59.530Z,94600.02
2019-04-04T10:48:28.259Z,94615.97
2019-04-04T10:50:57.205Z,94604.77
2019-04-04T10:53:25.701Z,94603.63
2019-04-04T10:55:54.468Z,94593.23
2019-04-04T10:58:22.963Z,94597.43
2019-04-04T11:00:51.569Z,94619.02
2019-04-04T11:03:20.075Z,94631.20
2019-04-04T11:05:48.587Z,94617.38
2019-04-04T11:08:17.067Z,94628.75
2019-04-04T11:10:45.543Z,94634.13
2019-04-04T11:13:14.017Z,94620.31
2019-04-04T11:15:42.574Z,94598.97
2019-04-04T11:18:11.055Z,94622.13
2019-04-04T11:20:39.519Z,94626.05
2019-04-04T11:23:08.027Z,94605.09
2019-04-04T11:25:36.536Z,94609.88
2019-04-04T11:28:05.089Z,94620.11
2019-04-04T11:30:33.600Z,94603.94
2019-04-04T11:33:02.092Z,94604.59
2019-04-04T11:35:30.629Z,94628.30
2019-04-04T11:37:59.137Z,94610.40
2019-04-04T11:40:27.637Z,94608.57
2019-04-04T11:42:56.132Z,94620.19
2019-04-04T11:45:24.609Z,94615.73
2019-04-04T11:47:53.108Z,94619.16
2019-04-04T11:50:21.719Z,94623.30
2019-04-04T11:52:50.292Z,94620.51
2019-04-04T11:55:18.980Z,94631.28
2019-04-04T11:57:47.530Z,94629.14
2019-04-04T12:00:17.929Z,94615.39
2019-04-04T12:02:46.400Z,94628.50
2019-04-04T12:05:16.688Z,94640.53
2019-04-04T12:07:46.883Z,94653.02
2019-04-04T12:10:15.673Z,94655.33
2019-04-04T12:12:44.157Z,94652.58
2019-04-04T12:15:14.326Z,94645.91
2019-04-04T12:17:42.753Z,94653.72
2019-04-04T12:20:13.234Z,94661.00
2019-04-04T12:22:41.787Z,94664.78
2019-04-04T12:25:11.198Z,94673.37
2019-04-04T12:27:39.683Z,94661.22
2019-04-04T12:30:10.037Z,94646.88
2019-04-04T12:32:38.530Z,94671.65
2019-04-04T12:35:07.274Z,94683.28
2019-04-04T12:37:35.728Z,94695.00
2019-04-04T12:40:19.499Z,94694.68
2019-04-04T12:42:36.651Z,94688.70
2019-04-04T12:45:08.111Z,94698.92
2019-04-04T12:47:36.766Z,94696.59
2019-04-04T12:50:06.899Z,94712.22
2019-04-04T12:52:36.918Z,94719.55
2019-04-04T12:55:07.243Z,94728.74
2019-04-04T12:57:35.839Z,94723.21
2019-04-04T13:00:07.044Z,94736.47
2019-04-04T13:02:35.539Z,94748.77
2019-04-04T13:05:05.146Z,94747.68
2019-04-04T13:07:33.668Z,94747.68
2019-04-04T13:10:11.465Z,94745.69
2019-04-04T13:12:32.723Z,94720.72
2019-04-04T13:15:01.240Z,94720.16
2019-04-04T13:17:29.730Z,94727.19
2019-04-04T13:19:58.531Z,94735.42
2019-04-04T13:22:27.102Z,94767.72
2019-04-04T13:24:55.968Z,94787.70
2019-04-04T13:27:24.577Z,94788.61
2019-04-04T13:29:53.136Z,94783.16
2019-04-04T13:32:21.603Z,94785.41
2019-04-04T13:34:59.255Z,94781.31
2019-04-04T13:37:20.469Z,94789.26
2019-04-04T13:39:48.934Z,94802.21
2019-04-04T13:42:17.881Z,94803.13
2019-04-04T13:44:46.344Z,94800.02
2019-04-04T13:47:14.842Z,94801.60
2019-04-04T13:49:44.510Z,94802.76
2019-04-04T13:52:13.476Z,94804.64
2019-04-04T13:54:47.204Z,94796.56
2019-04-04T13:57:15.700Z,94802.48
2019-04-04T13:59:44.175Z,94797.13
2019-04-04T14:02:12.647Z,94804.05
2019-04-04T14:04:41.124Z,94806.40
2019-04-04T14:07:09.600Z,94813.22
2019-04-04T14:09:38.365Z,94817.89
2019-04-04T14:12:07.006Z,94820.17
2019-04-04T14:14:35.538Z,94824.10
2019-04-04T14:17:04.118Z,94819.19
2019-04-04T14:19:32.598Z,94817.45
2019-04-04T14:22:01.089Z,94836.48
2019-04-04T14:24:29.601Z,94841.56
2019-04-04T14:26:58.203Z,94843.50
2019-04-04T14:29:28.052Z,94847.59
2019-04-04T14:31:56.890Z,94852.47
2019-04-04T14:34:25.367Z,94845.55
2019-04-04T14:36:53.813Z,94847.08
2019-04-04T14:39:22.313Z,94833.03
2019-04-04T14:41:50.873Z,94820.17
2019-04-04T14:44:19.350Z,94820.55
2019-04-04T14:46:48.311Z,94815.33
2019-04-04T14:49:17.181Z,94805.64
2019-04-04T14:51:45.662Z,94797.87
2019-04-04T14:54:14.156Z,94798.38
2019-04-04T14:56:42.640Z,94804.69
2019-04-04T14:59:11.117Z,94825.25
2019-04-04T15:01:39.606Z,94847.86
2019-04-04T15:04:08.109Z,94844.11
2019-04-04T15:06:36.600Z,94841.48
2019-04-04T15:09:08.097Z,94847.11
2019-04-04T15:11:36.564Z,94848.75
2019-04-04T15:14:05.050Z,94860.04
2019-04-04T15:16:33.824Z,94868.09
2019-04-04T15:19:02.315Z,94869.42
2019-04-04T15:21:30.814Z,94875.94
2019-04-04T15:23:59.298Z,94869.19
2019-04-04T15:26:27.833Z,94876.14
2019-04-04T15:28:56.310Z,94876.48
2019-04-04T15:31:24.822Z,94883.02
2019-04-04T15:33:53.330Z,94885.51
2019-04-04T15:36:21.838Z,94899.03
2019-04-04T15:38:50.344Z,94905.68
2019-04-04T15:41:19.081Z,94920.80
2019-04-04T15:43:47.571Z,94924.78
2019-04-04T15:46:16.060Z,94918.03
2019-04-04T15:48:44.548Z,94908.64
2019-04-04T15:51:13.124Z,94916.11
2019-04-04T15:53:41.618Z,94903.55
2019-04-04T15:56:10.104Z,94897.22
2019-04-04T15:58:38.693Z,94888.80
2019-04-04T16:01:07.455Z,94887.16
2019-04-04T16:03:35.955Z,94898.92
2019-04-04T16:06:04.706Z,94909.23
2019-04-04T16:08:33.193Z,94911.38
2019-04-04T16:11:01.683Z,94919.28
2019-04-04T16:13:30.181Z,94911.81
2019-04-04T16:15:58.691Z,94933.69
2019-04-04T16:18:27.177Z,94937.23
2019-04-04T16:20:55.661Z,94944.20
2019-04-04T16:23:24.206Z,94944.09
2019-04-04T16:25:52.757Z,94942.87
2019-04-04T16:28:21.230Z,94946.45
2019-04-04T16:30:49.741Z,94947.55
2019-04-04T16:33:18.319Z,94953.41
2019-04-04T16:35:46.884Z,94980.53
2019-04-04T16:38:15.366Z,94992.02
2019-04-04T16:40:43.855Z,94989.48
2019-04-04T16:43:12.338Z,94995.62
2019-04-04T16:45:40.823Z,94984.39
2019-04-04T16:48:09.401Z,94971.83
2019-04-04T16:50:37.890Z,94964.96
2019-04-04T16:53:06.522Z,94965.48
2019-04-04T16:55:35.076Z,94965.87
2019-04-04T16:58:03.621Z,94973.95
2019-04-04T17:00:32.242Z,94986.02
2019-04-04T17:03:00.741Z,94988.38
2019-04-04T17:05:29.248Z,94984.89
2019-04-04T17:07:57.744Z,94988.30
2019-04-04T17:10:28.146Z,94984.18
2019-04-04T17:12:56.480Z,94988.58
2019-04-04T17:15:24.971Z,95014.46
2019-04-04T17:17:53.450Z,95015.79
2019-04-04T17:20:21.979Z,95006.17
2019-04-04T17:22:50.440Z,95003.63
2019-04-04T17:25:18.926Z,95011.43
2019-04-04T17:27:47.421Z,95026.55
2019-04-04T17:30:16.525Z,95031.36
2019-04-04T17:32:47.961Z,95019.31
2019-04-04T17:35:15.510Z,95013.27
2019-04-04T17:37:43.963Z,95012.56
2019-04-04T17:40:12.972Z,95028.52
2019-04-04T17:42:41.789Z,95037.08
2019-04-04T17:45:10.686Z,95048.96
2019-04-04T17:47:40.811Z,95059.40
2019-04-04T17:50:11.289Z,95065.73
2019-04-04T17:52:40.172Z,95061.12
2019-04-04T17:55:09.585Z,95048.14
2019-04-04T17:57:38.479Z,95041.81
2019-04-04T18:00:09.389Z,95043.23
2019-04-04T18:02:37.955Z,95044.67
2019-04-04T18:05:09.701Z,95046.91
2019-04-04T18:07:38.247Z,95055.62
2019-04-04T18:10:08.086Z,95056.13
2019-04-04T18:12:40.486Z,95054.36
2019-04-04T18:15:08.555Z,95063.08
2019-04-04T18:17:37.063Z,95064.72
2019-04-04T18:20:10.258Z,95061.33
2019-04-04T18:22:38.738Z,95071.05
2019-04-04T18:25:10.882Z,95074.84
2019-04-04T18:27:39.383Z,95087.01
2019-04-04T18:30:13.273Z,95088.03
2019-04-04T18:32:41.827Z,95088.34
2019-04-04T18:35:10.765Z,95086.30
2019-04-04T18:37:39.408Z,95093.03
2019-04-04T18:40:09.618Z,95087.92
2019-04-04T18:42:38.163Z,95093.74
2019-04-04T18:45:08.984Z,95087.83
2019-04-04T18:47:37.467Z,95086.90
2019-04-04T18:50:07.688Z,95089.75
2019-04-04T18:52:36.352Z,95090.14
2019-04-04T18:55:18.985Z,95096.91
2019-04-04T18:57:37.487Z,95107.92
2019-04-04T19:00:11.041Z,95106.78
2019-04-04T19:02:39.984Z,95105.14
2019-04-04T19:05:09.313Z,95105.96
2019-04-04T19:07:39.564Z,95111.16
2019-04-04T19:10:08.851Z,95110.25
2019-04-04T19:12:37.328Z,95115.56
2019-04-04T19:15:07.966Z,95111.46
2019-04-04T19:17:36.990Z,95120.95
2019-04-04T19:20:10.347Z,95123.61
2019-04-04T19:22:39.201Z,95126.98
2019-04-04T19:25:08.639Z,95114.12
2019-04-04T19:27:37.217Z,95127.23
2019-04-04T19:30:10.588Z,95117.85
2019-04-04T19:32:39.220Z,95122.23
2019-04-04T19:35:08.960Z,95124.89
2019-04-04T19:37:37.463Z,95116.02
2019-04-04T19:40:08.085Z,95119.27
2019-04-04T19:42:36.615Z,95116.02
2019-04-04T19:45:08.165Z,95113.75
2019-04-04T19:47:36.723Z,95114.05
2019-04-04T19:50:10.743Z,95114.95
2019-04-04T19:52:39.229Z,95115.66
2019-04-04T19:55:08.568Z,95106.55
2019-04-04T19:57:37.140Z,95101.16
2019-04-04T20:00:12.632Z,95097.48
2019-04-04T20:02:43.825Z,95101.55
2019-04-04T20:05:11.732Z,95084.47
2019-04-04T20:07:40.320Z,95085.02
2019-04-04T20:10:09.045Z,95090.02
2019-04-04T20:12:37.527Z,95092.06
2019-04-04T20:15:09.175Z,95094.72
2019-04-04T20:17:37.679Z,95082.87
2019-04-04T20:20:08.267Z,95075.80
2019-04-04T20:22:36.765Z,95082.36
2019-04-04T20:25:06.610Z,95084.59
2019-04-04T20:27:35.166Z,95086.23
2019-04-04T20:30:07.948Z,95094.20
2019-04-04T20:32:36.459Z,95093.17
2019-04-04T20:35:07.646Z,95099.50
2019-04-04T20:37:36.158Z,95111.46
2019-04-04T20:40:05.880Z,95113.50
2019-04-04T20:42:34.377Z,95101.59
2019-04-04T20:45:02.880Z,95100.77
2019-04-04T20:47:33.689Z,95093.70
2019-04-04T20:50:01.655Z,95086.98
2019-04-04T20:52:30.174Z,95094.25
2019-04-04T20:54:58.660Z,95096.59
2019-04-04T20:57:27.168Z,95104.95
2019-04-04T20:59:55.659Z,95100.34
2019-04-04T21:02:24.149Z,95106.36
2019-04-04T21:04:54.407Z,95115.47
2019-04-04T21:07:22.854Z,95118.95
2019-04-04T21:09:51.359Z,95109.25
2019-04-04T21:12:19.837Z,95114.46
2019-04-04T21:14:48.330Z,95115.51
2019-04-04T21:17:16.821Z,95119.08
2019-04-04T21:19:45.372Z,95118.68
2019-04-04T21:22:26.585Z,95116.93
2019-04-04T21:24:44.156Z,95119.81
2019-04-04T21:27:12.642Z,95123.37
2019-04-04T21:29:41.144Z,95118.76
2019-04-04T21:32:09.653Z,95129.31
2019-04-04T21:34:38.120Z,95136.08
2019-04-04T21:37:06.675Z,95130.97
2019-04-04T21:39:35.246Z,95129.55
2019-04-04T21:42:03.739Z,95133.82
2019-04-04T21:44:32.372Z,95126.35
2019-04-04T21:47:00.878Z,95125.64
2019-04-04T21:49:29.360Z,95121.34
2019-04-04T21:51:57.842Z,95115.00
2019-04-04T21:54:26.337Z,95118.57
2019-04-04T21:56:54.818Z,95119.82
2019-04-04T21:59:23.292Z,95117.78
2019-04-04T22:01:51.920Z,95122.67
2019-04-04T22:04:20.414Z,95121.86
2019-04-04T22:06:48.898Z,95125.53
2019-04-04T22:09:19.326Z,95121.16
2019-04-04T22:11:47.871Z,95120.22
2019-04-04T22:14:26.279Z,95124.43
2019-04-04T22:16:54.769Z,95119.81
2019-04-04T22:19:23.261Z,95119.58
2019-04-04T22:21:51.797Z,95118.95
2019-04-04T22:24:22.334Z,95120.52
2019-04-04T22:26:50.497Z,95121.53
2019-04-04T22:29:18.975Z,95113.36
2019-04-04T22:31:47.449Z,95108.24
2019-04-04T22:34:15.958Z,95107.34
2019-04-04T22:36:44.447Z,95105.28
2019-04-04T22:39:12.929Z,95116.84
2019-04-04T22:41:41.434Z,95109.69
2019-04-04T22:44:09.928Z,95118.57
2019-04-04T22:46:38.426Z,95112.66
2019-04-04T22:49:06.935Z,95104.38
2019-04-04T22:51:35.408Z,95096.71
2019-04-04T22:54:03.972Z,95083.19
2019-04-04T22:56:32.518Z,95099.26
2019-04-04T22:59:00.972Z,95093.13
2019-04-04T23:01:29.453Z,95095.19
2019-04-04T23:03:57.878Z,95086.39
2019-04-04T23:06:26.340Z,95077.91
2019-04-04T23:08:54.787Z,95067.36
2019-04-04T23:11:23.273Z,95056.41
2019-04-04T23:13:51.734Z,95046.91
2019-04-04T23:16:20.201Z,95044.67
2019-04-04T23:18:48.626Z,95040.67
2019-04-04T23:21:17.080Z,95039.34
2019-04-04T23:23:45.776Z,95045.06
2019-04-04T23:26:14.206Z,95051.01
2019-04-04T23:28:42.650Z,95050.58
2019-04-04T23:31:11.115Z,95046.91
2019-04-04T23:33:39.557Z,95043.34
2019-04-04T23:36:08.004Z,95049.17
2019-04-04T23:38:36.460Z,95043.66
2019-04-04T23:41:04.984Z,95042.01
2019-04-04T23:43:33.405Z,95037.52
2019-04-04T23:46:01.888Z,95027.50
2019-04-04T23:48:30.336Z,95022.77
2019-04-04T23:50:58.792Z,95018.59
2019-04-04T23:53:27.257Z,95018.59
2019-04-04T23:55:55.797Z,95020.94
2019-04-04T23:58:24.282Z,95021.25
